Time;durP1;ratioP1;P1;durP2;ratioP2;P2;SDS_P1;SDS_P2;PMS_P1;PMS_P2;Temp;Humidity;BMP_temperature;BMP_pressure;BME280_temperature;BME280_humidity;BME280_pressure;Samples;Min_cycle;Max_cycle;Signal;HPM_P1;HPM_P2
2023/03/22 00:01:52;;;;;;;15.40;2.77;;;;;;;17.35;51.85;100957.44;5049104;28;20024;-66
2023/03/22 00:04:18;;;;;;;9.33;1.90;;;;;;;16.93;51.59;100958.03;5049407;28;20515;-67
2023/03/22 00:06:44;;;;;;;14.37;2.70;;;;;;;16.45;52.84;100957.78;5049694;28;20025;-66
2023/03/22 00:09:09;;;;;;;13.70;2.53;;;;;;;16.38;52.66;100951.00;5049643;28;20044;-67
2023/03/22 00:11:35;;;;;;;12.30;1.90;;;;;;;16.09;54.52;100944.88;5049935;28;20025;-67
2023/03/22 00:14:00;;;;;;;12.30;2.20;;;;;;;16.05;55.37;100947.66;5048707;28;20028;-67
2023/03/22 00:16:26;;;;;;;18.67;2.60;;;;;;;16.70;53.58;100951.69;5049391;28;20124;-67
2023/03/22 00:18:51;;;;;;;7.40;2.20;;;;;;;16.03;54.88;100955.63;5050688;28;20020;-67
2023/03/22 00:21:17;;;;;;;15.73;3.17;;;;;;;16.17;54.32;100944.66;5048603;28;20091;-67
2023/03/22 00:23:43;;;;;;;16.37;2.60;;;;;;;16.38;53.93;100935.16;5049435;28;20021;-67
2023/03/22 00:26:09;;;;;;;13.13;2.20;;;;;;;15.49;56.01;100937.88;5049973;28;20027;-67
2023/03/22 00:28:35;;;;;;;15.10;4.00;;;;;;;16.43;54.72;100933.25;5048519;28;20473;-67
2023/03/22 00:31:03;;;;;;;15.80;2.50;;;;;;;15.99;55.30;100922.34;5050361;28;20056;-66
2023/03/22 00:33:30;;;;;;;13.13;2.20;;;;;;;15.71;55.50;100920.50;5049398;28;20488;-67
2023/03/22 00:36:04;;;;;;;10.80;2.70;;;;;;;16.22;54.54;100912.84;5049077;28;20017;-67
2023/03/22 00:38:35;;;;;;;11.33;2.70;;;;;;;15.76;55.74;100909.84;5048799;28;20586;-67
2023/03/22 00:41:09;;;;;;;14.73;2.50;;;;;;;15.50;56.46;100913.28;5049102;28;20075;-67
2023/03/22 00:43:35;;;;;;;21.23;2.27;;;;;;;15.36;56.90;100909.25;5049942;28;20103;-67
2023/03/22 00:46:01;;;;;;;13.63;2.07;;;;;;;16.05;55.05;100900.22;5048714;28;20435;-67
2023/03/22 00:48:26;;;;;;;7.53;2.20;;;;;;;16.26;53.94;100893.38;5048609;28;20531;-67
2023/03/22 00:50:52;;;;;;;14.37;3.40;;;;;;;15.68;55.35;100901.31;5049293;28;20374;-66
2023/03/22 00:53:17;;;;;;;16.70;3.23;;;;;;;15.16;57.55;100898.44;5048438;28;20025;-67
2023/03/22 00:55:42;;;;;;;12.77;2.53;;;;;;;15.65;56.99;100883.81;5048725;28;20101;-66
2023/03/22 00:58:08;;;;;;;9.90;2.00;;;;;;;15.70;56.37;100881.91;5047299;28;20441;-67
2023/03/22 01:00:33;;;;;;;8.87;2.00;;;;;;;16.06;55.52;100870.28;5050430;28;20021;-67
2023/03/22 01:03:02;;;;;;;9.80;1.93;;;;;;;16.71;52.88;100874.25;5048395;28;20024;-67
2023/03/22 01:05:30;;;;;;;19.57;2.60;;;;;;;16.42;54.24;100868.22;5048064;28;20025;-67
2023/03/22 01:07:56;;;;;;;10.37;2.20;;;;;;;16.64;52.23;100859.56;5048165;28;20040;-66
2023/03/22 01:10:21;;;;;;;10.37;2.23;;;;;;;17.00;51.63;100853.91;5048814;28;20452;-67
2023/03/22 01:12:47;;;;;;;7.17;1.90;;;;;;;17.09;50.95;100852.69;5049545;28;20071;-67
2023/03/22 01:15:12;;;;;;;13.17;2.50;;;;;;;17.51;50.09;100845.88;5047840;28;20488;-67
2023/03/22 01:17:38;;;;;;;11.27;2.13;;;;;;;16.79;51.86;100835.25;5047529;28;20019;-67
2023/03/22 01:20:05;;;;;;;10.67;3.03;;;;;;;16.34;53.05;100849.13;5048771;28;20028;-66
2023/03/22 01:22:31;;;;;;;10.93;1.90;;;;;;;17.38;50.79;100833.13;5048152;28;20035;-67
2023/03/22 01:24:56;;;;;;;15.33;2.13;;;;;;;17.03;51.00;100832.66;5048493;28;20493;-67
2023/03/22 01:27:22;;;;;;;17.83;2.17;;;;;;;17.49;50.25;100823.91;5047833;28;20788;-67
2023/03/22 01:29:47;;;;;;;16.97;2.60;;;;;;;16.89;51.34;100819.97;5047871;28;20028;-67
2023/03/22 01:32:13;;;;;;;18.10;3.30;;;;;;;16.73;51.65;100813.50;5047209;28;20031;-67
2023/03/22 01:34:38;;;;;;;10.20;3.20;;;;;;;16.92;51.50;100800.53;5047954;28;20112;-67
2023/03/22 01:37:03;;;;;;;16.10;3.33;;;;;;;17.59;49.45;100793.56;5047416;28;20021;-67
2023/03/22 01:39:30;;;;;;;9.67;2.77;;;;;;;17.04;50.65;100797.44;5047173;28;20027;-68
2023/03/22 01:41:56;;;;;;;10.20;2.63;;;;;;;17.51;49.88;100788.59;5047803;28;20477;-67
2023/03/22 01:44:22;;;;;;;11.70;3.00;;;;;;;15.98;53.03;100803.75;5047323;28;20025;-67
2023/03/22 01:46:49;;;;;;;15.37;3.20;;;;;;;16.63;51.71;100798.00;5046630;28;20538;-67
2023/03/22 01:49:28;;;;;;;10.40;2.50;;;;;;;17.26;50.21;100780.78;5048656;28;20501;-67
2023/03/22 01:51:57;;;;;;;13.30;3.00;;;;;;;17.00;50.90;100774.69;5049050;28;20045;-67
2023/03/22 01:54:34;;;;;;;15.33;3.00;;;;;;;16.42;51.48;100782.94;5047923;28;20025;-67
2023/03/22 01:57:01;;;;;;;12.83;3.33;;;;;;;17.10;50.60;100768.16;5048731;28;20044;-67
2023/03/22 01:59:28;;;;;;;12.87;3.17;;;;;;;16.63;52.07;100776.03;5046851;28;20036;-67
2023/03/22 02:01:54;;;;;;;9.17;2.60;;;;;;;16.26;52.52;100774.69;5047168;28;20029;-67
2023/03/22 02:04:22;;;;;;;14.20;3.07;;;;;;;16.78;52.32;100759.63;5047080;28;20021;-67
2023/03/22 02:06:52;;;;;;;21.77;3.30;;;;;;;16.39;52.80;100768.09;5046418;28;20575;-67
2023/03/22 02:09:20;;;;;;;11.10;3.47;;;;;;;16.51;52.96;100765.91;5046956;28;20052;-67
2023/03/22 02:12:05;;;;;;;22.83;3.83;;;;;;;17.30;50.62;100755.97;5047210;28;20108;-67
2023/03/22 02:14:36;;;;;;;13.23;3.47;;;;;;;16.47;53.92;100757.22;5046995;28;20036;-67
2023/03/22 02:17:40;;;;;;;12.53;3.70;;;;;;;16.94;52.97;100748.53;5047120;28;20051;-67
2023/03/22 02:20:38;;;;;;;12.03;4.73;;;;;;;16.61;54.10;100746.22;5047916;28;20078;-67
2023/03/22 02:23:25;;;;;;;13.37;4.57;;;;;;;16.98;53.37;100739.59;5046511;28;20063;-67
2023/03/22 02:25:59;;;;;;;13.90;5.37;;;;;;;16.76;54.80;100739.47;5046857;28;20108;-66
2023/03/22 02:28:25;;;;;;;14.40;5.13;;;;;;;17.09;53.39;100737.38;5046019;28;20041;-67
2023/03/22 02:31:27;;;;;;;11.90;5.70;;;;;;;16.64;54.14;100740.81;5048320;28;20029;-67
2023/03/22 02:34:08;;;;;;;16.55;5.70;;;;;;;17.52;53.50;100732.19;5046970;28;20021;-67
2023/03/22 02:36:57;;;;;;;16.57;6.20;;;;;;;16.70;55.29;100724.75;5046651;28;20033;-67
2023/03/22 02:39:29;;;;;;;11.23;5.53;;;;;;;17.02;55.08;100720.06;5047147;28;20983;-66
2023/03/22 02:41:57;;;;;;;15.97;6.57;;;;;;;16.65;55.88;100726.72;5046155;28;20251;-67
2023/03/22 02:44:41;;;;;;;13.77;6.00;;;;;;;16.67;56.42;100727.50;5046692;28;20572;-66
2023/03/22 02:47:13;;;;;;;17.97;6.70;;;;;;;17.29;54.67;100719.88;5046184;28;20045;-67
2023/03/22 02:50:06;;;;;;;15.47;7.10;;;;;;;16.60;55.10;100718.09;5046626;28;20029;-67
2023/03/22 02:52:31;;;;;;;;;;;;;;;16.71;56.88;100720.34;5047567;28;20033;-67
2023/03/22 02:55:22;;;;;;;17.33;7.73;;;;;;;17.17;55.48;100715.94;5048253;28;20447;-67
2023/03/22 02:58:00;;;;;;;19.77;7.37;;;;;;;17.09;55.86;100716.25;5045990;28;20120;-67
2023/03/22 03:00:27;;;;;;;22.30;8.33;;;;;;;17.27;54.45;100719.09;5048336;28;20094;-67
2023/03/22 03:02:58;;;;;;;19.33;7.30;;;;;;;16.59;55.40;100711.09;5051543;28;20090;-67
2023/03/22 03:05:29;;;;;;;14.07;7.67;;;;;;;16.56;56.08;100705.94;5050598;28;20538;-67
2023/03/22 03:07:59;;;;;;;18.83;7.83;;;;;;;16.51;57.18;100715.78;5050460;28;20020;-67
2023/03/22 03:10:25;;;;;;;15.10;8.00;;;;;;;16.37;57.13;100708.38;5051281;28;20104;-67
2023/03/22 03:12:51;;;;;;;16.03;8.13;;;;;;;17.03;56.93;100700.66;5050574;28;20472;-67
2023/03/22 03:15:19;;;;;;;16.00;7.90;;;;;;;17.81;52.66;100703.69;5050329;28;20032;-67
2023/03/22 03:17:59;;;;;;;15.97;7.10;;;;;;;18.00;51.96;100708.19;5051461;28;20024;-67
2023/03/22 03:20:33;;;;;;;16.97;8.57;;;;;;;17.09;54.18;100697.78;5050438;28;20062;-67
2023/03/22 03:23:18;;;;;;;17.17;8.47;;;;;;;17.48;53.28;100695.38;5050292;28;20025;-67
2023/03/22 03:26:01;;;;;;;19.43;8.47;;;;;;;17.80;52.91;100692.25;5049833;28;20503;-67
2023/03/22 03:28:44;;;;;;;15.93;8.48;;;;;;;17.55;53.48;100691.56;5051663;28;20407;-67
2023/03/22 03:31:28;;;;;;;;;;;;;;;17.40;54.17;100688.59;5049648;28;20025;-66
2023/03/22 03:34:04;;;;;;;17.77;8.47;;;;;;;16.96;54.89;100683.31;5051612;28;19908;-66
2023/03/22 03:36:36;;;;;;;17.10;8.70;;;;;;;17.20;54.17;100685.91;5050619;28;20237;-67
2023/03/22 03:39:06;;;;;;;16.63;8.33;;;;;;;17.16;54.58;100689.59;5050784;28;20032;-67
2023/03/22 03:41:33;;;;;;;23.30;9.00;;;;;;;16.44;56.26;100687.00;5050366;28;20032;-66
2023/03/22 03:44:01;;;;;;;14.83;7.87;;;;;;;17.20;55.17;100693.84;5050094;28;20032;-67
2023/03/22 03:46:28;;;;;;;19.47;8.97;;;;;;;16.79;54.41;100686.59;5048861;28;20174;-67
2023/03/22 03:48:56;;;;;;;17.97;9.20;;;;;;;16.81;55.82;100691.81;5049825;28;20511;-67
2023/03/22 03:51:22;;;;;;;18.87;8.73;;;;;;;17.31;53.50;100681.09;5049858;28;20074;-67
2023/03/22 03:53:47;;;;;;;17.37;9.30;;;;;;;16.72;56.05;100696.53;5048976;28;20086;-67
2023/03/22 03:56:13;;;;;;;22.07;8.90;;;;;;;16.39;57.77;100694.22;5051110;28;20021;-67
2023/03/22 03:58:38;;;;;;;16.73;8.67;;;;;;;16.55;58.48;100688.38;5049960;28;20025;-67
2023/03/22 04:01:04;;;;;;;19.33;9.23;;;;;;;15.94;59.04;100687.88;5050019;28;20159;-66
2023/03/22 04:03:30;;;;;;;21.73;9.13;;;;;;;16.10;59.52;100692.59;5049973;28;20029;-66
2023/03/22 04:05:55;;;;;;;17.20;8.80;;;;;;;16.77;57.88;100673.47;5049527;28;20025;-67
2023/03/22 04:08:21;;;;;;;26.63;9.37;;;;;;;16.81;56.17;100684.75;5050106;28;20036;-66
2023/03/22 04:10:50;;;;;;;20.57;8.67;;;;;;;17.28;55.40;100683.81;5049384;28;20041;-66
2023/03/22 04:13:16;;;;;;;17.37;9.07;;;;;;;16.51;56.76;100684.97;5048723;28;20032;-66
2023/03/22 04:15:41;;;;;;;17.03;9.13;;;;;;;16.27;58.90;100684.13;5050992;28;20397;-66
2023/03/22 04:18:10;;;;;;;19.47;8.57;;;;;;;16.11;60.27;100683.78;5049065;28;20400;-67
2023/03/22 04:20:37;;;;;;;18.83;8.53;;;;;;;16.08;59.97;100684.75;5048866;28;20400;-66
2023/03/22 04:23:03;;;;;;;16.53;8.30;;;;;;;15.87;60.54;100672.34;5049083;28;20099;-67
2023/03/22 04:25:29;;;;;;;16.13;8.87;;;;;;;15.92;59.98;100673.03;5049794;28;20037;-66
2023/03/22 04:27:55;;;;;;;18.20;8.27;;;;;;;16.62;58.33;100660.84;5048385;28;20389;-66
2023/03/22 04:30:21;;;;;;;14.67;8.57;;;;;;;16.69;57.88;100664.97;5049001;28;20093;-66
2023/03/22 04:32:48;;;;;;;18.53;8.23;;;;;;;16.82;55.62;100657.44;5050524;28;20060;-67
2023/03/22 04:35:14;;;;;;;15.93;8.00;;;;;;;16.32;58.09;100661.09;5048236;28;20469;-67
2023/03/22 04:37:41;;;;;;;19.33;8.23;;;;;;;16.94;54.64;100648.22;5049216;28;20025;-67
2023/03/22 04:40:08;;;;;;;13.67;7.90;;;;;;;16.85;55.73;100649.41;5048516;28;20381;-67
2023/03/22 04:42:34;;;;;;;17.20;7.83;;;;;;;16.28;58.17;100654.19;5048497;28;20025;-66
2023/03/22 04:44:59;;;;;;;17.67;8.00;;;;;;;16.51;58.02;100650.69;5048833;28;20029;-67
2023/03/22 04:47:25;;;;;;;16.10;6.93;;;;;;;15.89;59.10;100658.19;5049889;28;20505;-66
2023/03/22 04:49:50;;;;;;;20.37;7.73;;;;;;;16.56;55.30;100650.53;5049503;28;20112;-66
2023/03/22 04:52:16;;;;;;;20.60;7.33;;;;;;;16.25;58.39;100649.00;5048774;28;20052;-66
2023/03/22 04:54:41;;;;;;;14.93;7.17;;;;;;;15.88;59.54;100651.22;5049168;28;20106;-66
2023/03/22 04:57:07;;;;;;;19.10;6.67;;;;;;;16.03;59.42;100644.53;5047657;28;20027;-67
2023/03/22 04:59:32;;;;;;;17.27;7.27;;;;;;;16.17;58.36;100636.13;5048902;28;20025;-66
2023/03/22 05:01:58;;;;;;;14.37;6.77;;;;;;;16.30;57.16;100652.34;5048596;28;20384;-66
2023/03/22 05:04:23;;;;;;;16.90;6.30;;;;;;;16.39;57.12;100645.88;5047948;28;20087;-66
2023/03/22 05:06:49;;;;;;;16.00;6.30;;;;;;;16.52;56.58;100646.28;5049714;28;20116;-66
2023/03/22 05:09:15;;;;;;;15.13;6.50;;;;;;;15.84;59.30;100648.72;5048363;28;20021;-67
2023/03/22 05:11:40;;;;;;;16.30;6.30;;;;;;;16.31;57.49;100643.53;5049345;28;20036;-67
2023/03/22 05:14:07;;;;;;;17.20;6.13;;;;;;;16.87;55.03;100636.13;5047741;28;20050;-66
2023/03/22 05:16:33;;;;;;;12.73;5.50;;;;;;;15.93;58.28;100632.59;5047807;28;20029;-66
2023/03/22 05:19:01;;;;;;;19.17;6.27;;;;;;;16.60;55.26;100623.09;5048292;28;20029;-67
2023/03/22 05:21:27;;;;;;;13.20;5.90;;;;;;;15.83;58.91;100639.13;5048050;28;20032;-67
2023/03/22 05:23:55;;;;;;;13.60;5.23;;;;;;;15.88;57.81;100645.06;5048187;28;20064;-66
2023/03/22 05:26:23;;;;;;;21.00;5.43;;;;;;;16.60;55.31;100629.22;5047964;28;20036;-67
2023/03/22 05:28:55;;;;;;;11.00;5.50;;;;;;;16.69;55.76;100628.03;5047925;28;20473;-66
2023/03/22 05:31:21;;;;;;;12.20;4.20;;;;;;;16.20;57.05;100624.63;5047441;28;20033;-67
2023/03/22 05:33:50;;;;;;;13.23;4.97;;;;;;;16.19;56.57;100622.88;5050058;28;20033;-67
2023/03/22 05:36:17;;;;;;;12.27;4.23;;;;;;;15.68;58.43;100628.16;5047810;28;20027;-66
2023/03/22 05:38:43;;;;;;;12.93;3.80;;;;;;;15.96;57.13;100621.06;5047396;28;20453;-66
2023/03/22 05:41:10;;;;;;;10.50;3.63;;;;;;;15.84;57.04;100620.59;5047221;28;20031;-66
2023/03/22 05:43:36;;;;;;;13.77;4.17;;;;;;;15.74;58.02;100622.69;5049584;28;20031;-66
2023/03/22 05:46:05;;;;;;;6.77;3.97;;;;;;;16.07;56.38;100614.53;5046988;28;20025;-67
2023/03/22 05:48:30;;;;;;;10.37;3.50;;;;;;;16.13;55.82;100612.53;5048471;28;20116;-67
2023/03/22 05:50:56;;;;;;;14.70;3.50;;;;;;;16.06;54.71;100609.28;5047023;28;20478;-67
2023/03/22 05:53:21;;;;;;;14.20;3.37;;;;;;;16.95;53.00;100610.31;5045954;28;20021;-66
2023/03/22 05:55:46;;;;;;;16.10;3.13;;;;;;;16.62;53.00;100606.31;5046597;28;20031;-67
2023/03/22 05:58:17;;;;;;;10.70;2.73;;;;;;;16.42;55.05;100599.16;5046457;28;20385;-66
2023/03/22 06:00:43;;;;;;;11.80;2.57;;;;;;;15.77;55.90;100601.47;5046460;28;20024;-66
2023/03/22 06:03:08;;;;;;;9.33;2.60;;;;;;;15.87;57.97;100601.19;5046220;28;20025;-67
2023/03/22 06:05:35;;;;;;;13.63;2.50;;;;;;;16.86;54.03;100597.47;5048357;28;20029;-66
2023/03/22 06:08:01;;;;;;;9.00;2.70;;;;;;;15.47;56.85;100613.06;5045890;28;20477;-67
2023/03/22 06:10:27;;;;;;;13.03;2.73;;;;;;;16.68;54.47;100615.75;5047793;28;20029;-67
2023/03/22 06:12:53;;;;;;;9.97;2.20;;;;;;;15.70;55.80;100617.53;5045935;28;20069;-66
2023/03/22 06:15:18;;;;;;;14.63;2.80;;;;;;;16.00;56.21;100617.41;5046447;28;20111;-66
2023/03/22 06:17:45;;;;;;;12.70;2.57;;;;;;;16.58;55.25;100615.25;5046808;28;20431;-67
2023/03/22 06:20:13;;;;;;;12.67;2.57;;;;;;;16.21;53.71;100621.91;5045212;28;20489;-66
2023/03/22 06:22:39;;;;;;;13.70;2.77;;;;;;;16.11;55.59;100610.84;5046894;28;20484;-67
2023/03/22 06:25:06;;;;;;;7.17;2.40;;;;;;;16.10;55.42;100617.03;5046029;28;20388;-67
2023/03/22 06:27:32;;;;;;;12.17;2.90;;;;;;;16.40;54.49;100611.53;5047298;28;20111;-66
2023/03/22 06:29:57;;;;;;;15.73;2.90;;;;;;;15.94;55.75;100610.59;5046649;28;20071;-66
2023/03/22 06:32:23;;;;;;;10.63;2.13;;;;;;;16.81;53.42;100604.72;5046232;28;20060;-66
2023/03/22 06:34:58;;;;;;;11.60;2.53;;;;;;;16.67;54.37;100610.53;5044296;28;20017;-66
2023/03/22 06:37:24;;;;;;;8.53;1.80;;;;;;;16.81;53.39;100615.28;5047486;28;20547;-66
2023/03/22 06:39:50;;;;;;;13.03;2.10;;;;;;;15.72;55.44;100592.88;5047901;28;20095;-66
2023/03/22 06:42:16;;;;;;;18.13;2.83;;;;;;;16.44;54.57;100607.88;5046653;28;20490;-66
2023/03/22 06:44:43;;;;;;;10.03;2.20;;;;;;;16.33;55.11;100599.47;5046686;28;20120;-66
2023/03/22 06:47:09;;;;;;;13.83;2.27;;;;;;;16.43;54.85;100610.53;5004402;28;1178529;-66
2023/03/22 06:49:35;;;;;;;10.40;2.43;;;;;;;16.54;54.35;100603.09;5048081;28;20036;-66
2023/03/22 06:52:00;;;;;;;11.27;2.60;;;;;;;15.85;56.40;100600.38;5046953;28;20036;-66
2023/03/22 06:54:26;;;;;;;10.67;2.20;;;;;;;16.52;55.37;100609.34;5046857;28;20165;-67
2023/03/22 06:56:51;;;;;;;12.87;2.17;;;;;;;16.69;53.88;100613.97;5046141;28;20436;-66
2023/03/22 06:59:16;;;;;;;6.93;1.70;;;;;;;16.31;54.38;100606.59;5046827;28;20472;-67
2023/03/22 07:01:42;;;;;;;16.83;3.00;;;;;;;16.82;53.02;100607.28;5047243;28;20028;-67
2023/03/22 07:04:07;;;;;;;10.60;2.03;;;;;;;16.72;54.50;100616.47;5045594;28;20120;-67
2023/03/22 07:06:32;;;;;;;13.87;1.80;;;;;;;16.61;53.85;100609.00;5047011;28;20473;-67
2023/03/22 07:08:58;;;;;;;10.00;2.07;;;;;;;16.51;54.07;100602.34;5046000;28;20070;-67
2023/03/22 07:11:25;;;;;;;20.63;2.50;;;;;;;16.79;53.78;100607.41;5047957;28;20025;-67
2023/03/22 07:13:52;;;;;;;14.00;2.27;;;;;;;17.18;52.67;100597.97;5048038;28;20032;-66
2023/03/22 07:16:17;;;;;;;10.10;1.93;;;;;;;16.71;53.73;100599.78;5045977;28;20028;-67
2023/03/22 07:18:43;;;;;;;10.70;1.90;;;;;;;15.94;56.06;100602.69;5048318;28;20397;-67
2023/03/22 07:21:08;;;;;;;19.80;2.90;;;;;;;16.62;53.71;100603.66;5046050;28;20028;-67
2023/03/22 07:23:34;;;;;;;12.13;2.20;;;;;;;16.59;54.43;100605.56;5047663;28;20025;-67
2023/03/22 07:26:00;;;;;;;17.10;2.30;;;;;;;16.50;54.58;100600.63;5047961;28;20128;-67
2023/03/22 07:28:25;;;;;;;8.77;1.93;;;;;;;17.48;52.34;100609.03;5046462;28;20594;-67
2023/03/22 07:31:02;;;;;;;10.47;1.80;;;;;;;17.08;53.51;100606.28;5046050;28;20029;-67
2023/03/22 07:33:28;;;;;;;6.47;1.80;;;;;;;16.61;52.79;100595.81;5046612;28;20056;-67
2023/03/22 07:35:54;;;;;;;10.37;1.87;;;;;;;17.57;51.73;100605.13;5046477;28;20540;-67
2023/03/22 07:38:20;;;;;;;7.87;1.77;;;;;;;17.36;52.42;100597.19;5045592;28;20024;-67
2023/03/22 07:40:45;;;;;;;13.73;1.70;;;;;;;18.43;49.74;100596.03;5046893;28;20025;-67
2023/03/22 07:43:12;;;;;;;14.37;2.57;;;;;;;17.56;51.42;100609.56;5047571;28;20393;-66
2023/03/22 07:45:39;;;;;;;11.73;2.30;;;;;;;17.53;52.02;100611.47;5046697;28;20024;-66
2023/03/22 07:48:05;;;;;;;8.40;1.93;;;;;;;17.03;53.46;100610.88;5050601;28;20041;-66
2023/03/22 07:50:31;;;;;;;8.40;1.90;;;;;;;16.54;54.30;100612.78;5051710;28;20031;-66
2023/03/22 07:52:56;;;;;;;7.93;1.80;;;;;;;16.35;55.50;100624.03;5049195;28;20033;-66
2023/03/22 07:55:21;;;;;;;15.77;2.53;;;;;;;16.77;55.82;100615.41;5051190;28;20029;-66
2023/03/22 07:57:47;;;;;;;12.03;2.43;;;;;;;16.72;55.75;100620.00;5049752;28;20395;-66
2023/03/22 08:00:14;;;;;;;8.23;1.90;;;;;;;15.74;59.82;100621.78;5048905;28;20385;-66
2023/03/22 08:02:39;;;;;;;14.13;2.90;;;;;;;16.71;56.38;100607.72;5051513;28;20027;-66
2023/03/22 08:05:06;;;;;;;15.57;2.13;;;;;;;16.72;57.36;100606.81;5050358;28;20714;-66
2023/03/22 08:07:31;;;;;;;10.33;2.40;;;;;;;16.72;56.13;100622.63;5049266;28;20025;-66
2023/03/22 08:09:56;;;;;;;12.57;3.07;;;;;;;17.24;54.72;100616.19;5049662;28;20116;-66
2023/03/22 08:12:22;;;;;;;8.07;2.27;;;;;;;17.33;54.00;100612.34;5050029;28;20728;-66
2023/03/22 08:14:49;;;;;;;11.37;2.13;;;;;;;16.89;55.63;100613.22;5050782;28;20400;-66
2023/03/22 08:17:17;;;;;;;15.67;2.30;;;;;;;16.29;56.85;100632.16;5049231;28;20017;-66
2023/03/22 08:19:42;;;;;;;8.93;2.20;;;;;;;16.66;56.23;100617.56;5049067;28;20492;-66
2023/03/22 08:22:08;;;;;;;7.33;1.80;;;;;;;16.16;58.13;100623.00;5048823;28;20029;-66
2023/03/22 08:24:34;;;;;;;12.80;2.17;;;;;;;16.10;58.50;100630.22;5049884;28;20028;-66
2023/03/22 08:27:00;;;;;;;23.13;3.40;;;;;;;16.52;57.05;100614.63;5048600;28;20492;-66
2023/03/22 08:29:26;;;;;;;11.27;2.60;;;;;;;15.52;61.52;100632.22;5050349;28;20456;-66
2023/03/22 08:31:51;;;;;;;10.10;2.20;;;;;;;15.64;61.39;100625.69;5049103;28;20048;-66
2023/03/22 08:34:17;;;;;;;9.03;2.43;;;;;;;16.29;60.18;100613.69;5048124;28;20025;-66
2023/03/22 08:36:43;;;;;;;10.53;2.77;;;;;;;15.68;62.91;100622.03;5049553;28;20114;-66
2023/03/22 08:39:08;;;;;;;17.30;3.37;;;;;;;16.05;63.27;100611.06;5048248;28;20455;-66
2023/03/22 08:41:34;;;;;;;13.63;3.53;;;;;;;15.86;65.36;100607.38;5048923;28;20028;-66
2023/03/22 08:44:00;;;;;;;10.33;3.47;;;;;;;15.40;67.71;100622.94;5048899;28;20039;-66
2023/03/22 08:46:25;;;;;;;10.13;2.90;;;;;;;15.30;68.83;100619.75;5048803;28;20021;-66
2023/03/22 08:48:51;;;;;;;10.00;2.40;;;;;;;15.29;68.80;100612.78;5047539;28;20102;-66
2023/03/22 08:51:18;;;;;;;14.23;2.80;;;;;;;15.85;66.53;100613.56;5048777;28;20055;-66
2023/03/22 08:53:46;;;;;;;18.23;3.60;;;;;;;15.42;67.73;100616.72;5049069;28;20040;-66
2023/03/22 08:56:13;;;;;;;14.37;2.77;;;;;;;15.97;67.39;100613.13;5047728;28;20397;-66
2023/03/22 08:58:41;;;;;;;15.70;3.03;;;;;;;16.14;66.65;100606.38;5048080;28;20063;-66
2023/03/22 09:01:09;;;;;;;12.73;2.30;;;;;;;15.68;66.93;100612.34;5048299;28;20063;-66
2023/03/22 09:03:35;;;;;;;15.03;3.23;;;;;;;15.27;72.04;100611.97;5048385;28;20083;-66
2023/03/22 09:06:00;;;;;;;20.13;3.70;;;;;;;15.59;71.05;100613.53;5049982;28;20058;-66
2023/03/22 09:08:27;;;;;;;11.90;3.10;;;;;;;14.98;73.33;100605.03;5049550;28;20521;-66
2023/03/22 09:10:53;;;;;;;15.40;3.43;;;;;;;15.92;70.64;100609.78;5047719;28;20039;-66
2023/03/22 09:13:19;;;;;;;9.73;3.30;;;;;;;15.84;70.69;100606.56;5049649;28;20033;-66
2023/03/22 09:15:46;;;;;;;17.93;3.37;;;;;;;15.39;71.00;100611.56;5047800;28;20036;-67
2023/03/22 09:18:11;;;;;;;11.73;2.97;;;;;;;15.15;73.40;100622.91;5048337;28;20447;-66
2023/03/22 09:20:37;;;;;;;11.37;3.20;;;;;;;14.94;73.95;100620.03;5049921;28;20392;-66
2023/03/22 09:23:03;;;;;;;13.37;3.80;;;;;;;16.51;67.05;100602.34;5047123;28;20396;-66
2023/03/22 09:25:29;;;;;;;11.97;3.00;;;;;;;15.02;74.61;100612.75;5048577;28;20036;-66
2023/03/22 09:27:54;;;;;;;12.53;3.80;;;;;;;16.20;70.61;100614.06;5048162;28;20025;-66
2023/03/22 09:30:20;;;;;;;10.50;3.73;;;;;;;16.01;67.96;100614.72;5047027;28;20025;-66
2023/03/22 09:32:45;;;;;;;11.03;3.23;;;;;;;15.95;70.82;100604.41;5048405;28;20139;-66
2023/03/22 09:35:11;;;;;;;17.43;3.97;;;;;;;17.15;64.07;100592.84;5047776;28;20451;-66
2023/03/22 09:37:36;;;;;;;13.93;3.60;;;;;;;16.60;67.30;100602.84;5049199;28;20388;-66
2023/03/22 09:40:04;;;;;;;19.23;4.50;;;;;;;16.04;68.78;100598.78;5049259;28;20093;-66
2023/03/22 09:42:41;;;;;;;15.70;4.20;;;;;;;16.61;68.68;100601.09;5049791;28;20028;-66
2023/03/22 09:45:13;;;;;;;13.43;3.50;;;;;;;16.31;69.31;100596.06;5046916;28;20094;-66
2023/03/22 09:47:45;;;;;;;10.85;3.03;;;;;;;15.55;71.50;100609.28;5047970;28;20167;-66
2023/03/22 09:50:20;;;;;;;18.80;3.40;;;;;;;15.47;71.51;100607.78;5047583;28;20032;-65
2023/03/22 09:52:46;;;;;;;13.10;3.60;;;;;;;15.21;75.07;100605.13;5047174;28;20120;-66
2023/03/22 09:55:36;;;;;;;9.80;3.67;;;;;;;16.43;68.38;100600.88;5047684;28;20020;-65
2023/03/22 09:58:12;;;;;;;8.03;2.77;;;;;;;16.18;70.59;100606.19;5047090;28;20025;-66
2023/03/22 10:00:48;;;;;;;8.87;2.97;;;;;;;15.25;72.38;100608.53;5049387;28;20035;-65
2023/03/22 10:03:29;;;;;;;17.37;3.53;;;;;;;15.69;72.25;100603.53;5047574;28;20556;-65
2023/03/22 10:06:00;;;;;;;9.80;2.97;;;;;;;16.12;69.03;100590.59;5048248;28;20020;-65
2023/03/22 10:08:46;;;;;;;15.27;3.20;;;;;;;15.77;72.68;100606.75;5046960;28;20040;-65
2023/03/22 10:11:33;;;;;;;10.37;2.60;;;;;;;15.92;71.79;100626.47;5048659;28;20020;-65
2023/03/22 10:14:34;;;;;;;13.97;2.60;;;;;;;16.00;71.00;100602.44;5046727;28;20025;-65
2023/03/22 10:17:04;;;;;;;14.77;2.77;;;;;;;15.91;70.60;100592.25;5045282;28;20029;-65
2023/03/22 10:19:50;;;;;;;7.03;2.37;;;;;;;16.31;70.90;100609.25;5048361;28;20032;-65
2023/03/22 10:22:21;;;;;;;12.87;2.70;;;;;;;15.85;69.57;100603.84;5047145;28;20029;-65
2023/03/22 10:24:49;;;;;;;10.33;2.77;;;;;;;16.36;70.12;100609.06;5047413;28;20063;-65
2023/03/22 10:27:18;;;;;;;11.43;3.00;;;;;;;15.72;71.78;100613.94;5047865;28;20451;-65
2023/03/22 10:29:52;;;;;;;7.50;2.77;;;;;;;15.97;71.08;100592.03;5048769;28;20107;-65
2023/03/22 10:32:19;;;;;;;8.60;3.10;;;;;;;16.47;70.71;100584.91;5046976;28;20025;-65
2023/03/22 10:34:45;;;;;;;13.97;3.23;;;;;;;17.17;66.71;100590.97;5047004;28;20025;-65
2023/03/22 10:37:17;;;;;;;10.47;3.30;;;;;;;15.75;73.62;100579.56;5046836;28;20028;-65
2023/03/22 10:39:49;;;;;;;6.43;2.78;;;;;;;16.03;72.21;100583.03;5047406;28;20467;-65
2023/03/22 10:42:27;;;;;;;13.40;2.58;;;;;;;16.31;72.27;100574.09;5047773;28;20025;-65
2023/03/22 10:45:05;;;;;;;14.80;3.33;;;;;;;16.35;72.14;100566.00;5048412;28;20037;-65
2023/03/22 10:47:41;;;;;;;12.10;3.23;;;;;;;16.67;69.49;100587.63;5047741;28;20053;-66
2023/03/22 10:50:21;;;;;;;11.17;2.80;;;;;;;16.31;70.84;100564.41;5046511;28;20036;-65
2023/03/22 10:52:56;;;;;;;9.50;2.97;;;;;;;16.33;70.46;100567.84;5046995;28;20028;-65
2023/03/22 10:55:23;;;;;;;12.77;2.77;;;;;;;16.74;65.43;100578.56;5045991;28;20028;-66
2023/03/22 10:58:18;;;;;;;10.23;2.90;;;;;;;17.19;66.03;100568.00;5046938;28;20497;-66
2023/03/22 11:00:50;;;;;;;10.53;3.00;;;;;;;17.33;65.29;100564.78;5047137;28;20063;-66
2023/03/22 11:03:25;;;;;;;16.38;3.10;;;;;;;16.53;65.92;100568.88;5047431;28;20040;-65
2023/03/22 11:06:06;;;;;;;10.63;2.73;;;;;;;15.58;70.61;100571.44;5048210;28;20083;-65
2023/03/22 11:08:49;;;;;;;10.93;2.67;;;;;;;17.20;65.84;100561.78;5047916;28;20091;-66
2023/03/22 11:11:22;;;;;;;9.30;2.65;;;;;;;16.96;64.56;100565.38;5046509;28;20094;-66
2023/03/22 11:13:52;;;;;;;;;;;;;;;17.99;61.95;100569.84;5048626;28;20653;-65
2023/03/22 11:16:19;;;;;;;17.57;2.53;;;;;;;16.57;66.40;100586.28;5045879;28;20447;-65
2023/03/22 11:18:44;;;;;;;7.40;2.87;;;;;;;16.81;64.49;100580.97;5046914;28;20025;-65
2023/03/22 11:21:13;;;;;;;10.70;2.20;;;;;;;16.75;64.42;100580.28;5047626;28;20374;-66
2023/03/22 11:23:44;;;;;;;9.53;2.23;;;;;;;16.71;66.50;100589.25;5050125;28;20056;-65
2023/03/22 11:26:13;;;;;;;10.60;3.03;;;;;;;17.07;65.16;100599.25;5049850;28;20465;-66
2023/03/22 11:28:46;;;;;;;10.37;2.73;;;;;;;17.76;60.83;100599.91;5052197;28;20025;-65